sensor_id;sensor_type;location;lat;lon;timestamp;pressure;altitude;pressure_sealevel;temperature;humidity
69751;BME280;57335;52.288;6.056;2023-12-04T00:01:17;101383.88;;;-0.11;100.00
69751;BME280;57335;52.288;6.056;2023-12-04T00:03:44;101375.44;;;-0.13;100.00
69751;BME280;57335;52.288;6.056;2023-12-04T00:06:11;101373.56;;;-0.11;100.00
69751;BME280;57335;52.288;6.056;2023-12-04T00:08:38;101365.13;;;-0.13;100.00
69751;BME280;57335;52.288;6.056;2023-12-04T00:11:05;101360.78;;;-0.12;100.00
69751;BME280;57335;52.288;6.056;2023-12-04T00:13:32;101352.75;;;-0.19;100.00
69751;BME280;57335;52.288;6.056;2023-12-04T00:15:59;101357.66;;;-0.16;100.00
69751;BME280;57335;52.288;6.056;2023-12-04T00:18:26;101357.78;;;-0.17;100.00
69751;BME280;57335;52.288;6.056;2023-12-04T00:20:52;101340.94;;;-0.22;100.00
69751;BME280;57335;52.288;6.056;2023-12-04T00:23:19;101352.38;;;-0.14;100.00
69751;BME280;57335;52.288;6.056;2023-12-04T00:25:45;101341.63;;;-0.19;100.00
69751;BME280;57335;52.288;6.056;2023-12-04T00:28:12;101348.28;;;-0.17;100.00
69751;BME280;57335;52.288;6.056;2023-12-04T00:30:38;101347.59;;;-0.19;100.00
69751;BME280;57335;52.288;6.056;2023-12-04T00:33:05;101346.78;;;-0.19;100.00
69751;BME280;57335;52.288;6.056;2023-12-04T00:35:31;101339.63;;;-0.16;100.00
69751;BME280;57335;52.288;6.056;2023-12-04T00:37:58;101341.53;;;-0.18;100.00
69751;BME280;57335;52.288;6.056;2023-12-04T00:40:24;101328.41;;;-0.26;100.00
69751;BME280;57335;52.288;6.056;2023-12-04T00:42:51;101332.84;;;-0.17;100.00
69751;BME280;57335;52.288;6.056;2023-12-04T00:45:17;101331.22;;;-0.18;100.00
69751;BME280;57335;52.288;6.056;2023-12-04T00:47:44;101326.06;;;-0.18;100.00
69751;BME280;57335;52.288;6.056;2023-12-04T00:50:10;101332.84;;;-0.17;100.00
69751;BME280;57335;52.288;6.056;2023-12-04T00:52:37;101332.59;;;-0.14;100.00
69751;BME280;57335;52.288;6.056;2023-12-04T00:55:03;101332.44;;;-0.12;100.00
69751;BME280;57335;52.288;6.056;2023-12-04T00:57:30;101336.69;;;-0.11;100.00
69751;BME280;57335;52.288;6.056;2023-12-04T00:59:57;101333.28;;;-0.12;100.00
69751;BME280;57335;52.288;6.056;2023-12-04T01:02:23;101327.31;;;-0.12;100.00
69751;BME280;57335;52.288;6.056;2023-12-04T01:04:50;101314.50;;;-0.24;100.00
69751;BME280;57335;52.288;6.056;2023-12-04T01:07:17;101304.03;;;-0.22;100.00
69751;BME280;57335;52.288;6.056;2023-12-04T01:09:43;101323.22;;;-0.15;100.00
69751;BME280;57335;52.288;6.056;2023-12-04T01:12:09;101319.84;;;-0.15;100.00
69751;BME280;57335;52.288;6.056;2023-12-04T01:14:36;101312.81;;;-0.13;100.00
69751;BME280;57335;52.288;6.056;2023-12-04T01:17:04;101305.44;;;-0.18;100.00
69751;BME280;57335;52.288;6.056;2023-12-04T01:19:32;101302.88;;;-0.18;100.00
69751;BME280;57335;52.288;6.056;2023-12-04T01:22:00;101292.94;;;-0.23;100.00
69751;BME280;57335;52.288;6.056;2023-12-04T01:24:26;101293.25;;;-0.16;100.00
69751;BME280;57335;52.288;6.056;2023-12-04T01:26:52;101281.81;;;-0.23;100.00
69751;BME280;57335;52.288;6.056;2023-12-04T01:29:19;101282.50;;;-0.21;100.00
69751;BME280;57335;52.288;6.056;2023-12-04T01:31:45;101291.31;;;-0.24;100.00
69751;BME280;57335;52.288;6.056;2023-12-04T01:34:12;101298.53;;;-0.17;100.00
69751;BME280;57335;52.288;6.056;2023-12-04T01:36:41;101290.94;;;-0.19;100.00
69751;BME280;57335;52.288;6.056;2023-12-04T01:39:08;101297.47;;;-0.15;100.00
69751;BME280;57335;52.288;6.056;2023-12-04T01:41:34;101285.91;;;-0.21;100.00
69751;BME280;57335;52.288;6.056;2023-12-04T01:44:01;101295.69;;;-0.14;100.00
69751;BME280;57335;52.288;6.056;2023-12-04T01:46:27;101276.97;;;-0.16;100.00
69751;BME280;57335;52.288;6.056;2023-12-04T01:48:56;101282.56;;;-0.11;100.00
69751;BME280;57335;52.288;6.056;2023-12-04T01:51:23;101280.25;;;-0.14;100.00
69751;BME280;57335;52.288;6.056;2023-12-04T01:53:51;101263.97;;;-0.15;100.00
69751;BME280;57335;52.288;6.056;2023-12-04T01:56:19;101274.16;;;-0.13;100.00
69751;BME280;57335;52.288;6.056;2023-12-04T01:58:46;101264.94;;;-0.16;100.00
69751;BME280;57335;52.288;6.056;2023-12-04T02:01:13;101259.09;;;-0.18;100.00
69751;BME280;57335;52.288;6.056;2023-12-04T02:03:40;101261.00;;;-0.10;100.00
69751;BME280;57335;52.288;6.056;2023-12-04T02:06:08;101257.75;;;-0.12;100.00
69751;BME280;57335;52.288;6.056;2023-12-04T02:08:35;101276.91;;;-0.05;100.00
69751;BME280;57335;52.288;6.056;2023-12-04T02:11:02;101269.75;;;-0.02;100.00
69751;BME280;57335;52.288;6.056;2023-12-04T02:13:28;101258.19;;;-0.07;100.00
69751;BME280;57335;52.288;6.056;2023-12-04T02:15:58;101254.66;;;-0.06;100.00
69751;BME280;57335;52.288;6.056;2023-12-04T02:18:27;101265.31;;;0.01;100.00
69751;BME280;57335;52.288;6.056;2023-12-04T02:20:54;101245.31;;;-0.07;100.00
69751;BME280;57335;52.288;6.056;2023-12-04T02:23:23;101246.41;;;-0.10;100.00
69751;BME280;57335;52.288;6.056;2023-12-04T02:25:50;101244.94;;;-0.03;100.00
69751;BME280;57335;52.288;6.056;2023-12-04T02:28:18;101233.81;;;-0.03;100.00
69751;BME280;57335;52.288;6.056;2023-12-04T02:30:48;101226.78;;;-0.01;100.00
69751;BME280;57335;52.288;6.056;2023-12-04T02:33:18;101215.31;;;-0.08;100.00
69751;BME280;57335;52.288;6.056;2023-12-04T02:35:47;101217.91;;;-0.08;100.00
69751;BME280;57335;52.288;6.056;2023-12-04T02:38:14;101216.72;;;-0.04;100.00
69751;BME280;57335;52.288;6.056;2023-12-04T02:40:40;101225.13;;;-0.02;100.00
69751;BME280;57335;52.288;6.056;2023-12-04T02:43:07;101228.41;;;0.00;100.00
69751;BME280;57335;52.288;6.056;2023-12-04T02:45:33;101217.16;;;0.01;100.00
69751;BME280;57335;52.288;6.056;2023-12-04T02:48:00;101213.09;;;-0.02;100.00
69751;BME280;57335;52.288;6.056;2023-12-04T02:50:27;101206.03;;;0.01;100.00
69751;BME280;57335;52.288;6.056;2023-12-04T02:52:53;101205.22;;;0.00;100.00
69751;BME280;57335;52.288;6.056;2023-12-04T02:55:20;101202.50;;;0.02;100.00
69751;BME280;57335;52.288;6.056;2023-12-04T02:57:46;101195.16;;;-0.03;100.00
69751;BME280;57335;52.288;6.056;2023-12-04T03:00:13;101202.25;;;0.05;100.00
69751;BME280;57335;52.288;6.056;2023-12-04T03:02:39;101189.31;;;-0.05;100.00
69751;BME280;57335;52.288;6.056;2023-12-04T03:05:06;101193.97;;;0.01;100.00
69751;BME280;57335;52.288;6.056;2023-12-04T03:07:32;101184.34;;;0.03;100.00
69751;BME280;57335;52.288;6.056;2023-12-04T03:09:59;101183.53;;;0.03;100.00
69751;BME280;57335;52.288;6.056;2023-12-04T03:12:25;101180.63;;;-0.04;100.00
69751;BME280;57335;52.288;6.056;2023-12-04T03:14:52;101173.59;;;-0.02;100.00
69751;BME280;57335;52.288;6.056;2023-12-04T03:17:18;101173.75;;;-0.04;100.00
69751;BME280;57335;52.288;6.056;2023-12-04T03:19:45;101175.25;;;-0.01;100.00
69751;BME280;57335;52.288;6.056;2023-12-04T03:22:12;101168.03;;;-0.07;100.00
69751;BME280;57335;52.288;6.056;2023-12-04T03:24:39;101172.41;;;0.02;100.00
69751;BME280;57335;52.288;6.056;2023-12-04T03:27:05;101157.59;;;-0.06;100.00
69751;BME280;57335;52.288;6.056;2023-12-04T03:29:32;101170.78;;;0.01;100.00
69751;BME280;57335;52.288;6.056;2023-12-04T03:31:58;101151.63;;;-0.06;100.00
69751;BME280;57335;52.288;6.056;2023-12-04T03:34:24;101162.94;;;0.03;100.00
69751;BME280;57335;52.288;6.056;2023-12-04T03:36:51;101145.53;;;-0.05;100.00
69751;BME280;57335;52.288;6.056;2023-12-04T03:39:18;101165.63;;;0.01;100.00
69751;BME280;57335;52.288;6.056;2023-12-04T03:41:44;101154.38;;;0.02;100.00
69751;BME280;57335;52.288;6.056;2023-12-04T03:44:11;101149.47;;;-0.01;100.00
69751;BME280;57335;52.288;6.056;2023-12-04T03:46:37;101157.66;;;0.04;100.00
69751;BME280;57335;52.288;6.056;2023-12-04T03:49:05;101159.13;;;0.07;100.00
69751;BME280;57335;52.288;6.056;2023-12-04T03:51:32;101147.47;;;0.03;100.00
69751;BME280;57335;52.288;6.056;2023-12-04T03:53:58;101149.06;;;0.04;100.00
69751;BME280;57335;52.288;6.056;2023-12-04T03:56:25;101138.78;;;0.04;100.00
69751;BME280;57335;52.288;6.056;2023-12-04T03:58:51;101145.69;;;0.03;100.00
69751;BME280;57335;52.288;6.056;2023-12-04T04:01:17;101137.41;;;-0.01;100.00
69751;BME280;57335;52.288;6.056;2023-12-04T04:03:44;101111.06;;;-0.14;100.00
69751;BME280;57335;52.288;6.056;2023-12-04T04:06:12;101118.00;;;-0.05;100.00
69751;BME280;57335;52.288;6.056;2023-12-04T04:08:38;101126.97;;;0.01;100.00
69751;BME280;57335;52.288;6.056;2023-12-04T04:11:05;101114.63;;;-0.05;100.00
69751;BME280;57335;52.288;6.056;2023-12-04T04:13:31;101103.75;;;-0.09;100.00
69751;BME280;57335;52.288;6.056;2023-12-04T04:15:58;101122.50;;;0.03;100.00
69751;BME280;57335;52.288;6.056;2023-12-04T04:18:24;101112.88;;;0.05;100.00
69751;BME280;57335;52.288;6.056;2023-12-04T04:20:51;101097.94;;;-0.01;100.00
69751;BME280;57335;52.288;6.056;2023-12-04T04:23:17;101102.69;;;0.04;100.00
69751;BME280;57335;52.288;6.056;2023-12-04T04:25:44;101106.47;;;-0.01;100.00
69751;BME280;57335;52.288;6.056;2023-12-04T04:28:10;101104.22;;;0.06;100.00
69751;BME280;57335;52.288;6.056;2023-12-04T04:30:37;101100.00;;;0.05;100.00
69751;BME280;57335;52.288;6.056;2023-12-04T04:33:03;101097.53;;;0.04;100.00
69751;BME280;57335;52.288;6.056;2023-12-04T04:35:31;101098.38;;;0.04;100.00
69751;BME280;57335;52.288;6.056;2023-12-04T04:37:57;101088.56;;;-0.02;100.00
69751;BME280;57335;52.288;6.056;2023-12-04T04:40:24;101084.94;;;0.01;100.00
69751;BME280;57335;52.288;6.056;2023-12-04T04:42:50;101078.81;;;0.02;100.00
69751;BME280;57335;52.288;6.056;2023-12-04T04:45:17;101084.38;;;-0.03;100.00
69751;BME280;57335;52.288;6.056;2023-12-04T04:47:43;101075.00;;;-0.04;100.00
69751;BME280;57335;52.288;6.056;2023-12-04T04:50:10;101071.75;;;-0.06;100.00
69751;BME280;57335;52.288;6.056;2023-12-04T04:52:36;101080.03;;;-0.03;100.00
69751;BME280;57335;52.288;6.056;2023-12-04T04:55:04;101063.22;;;-0.07;100.00
69751;BME280;57335;52.288;6.056;2023-12-04T04:57:31;101062.97;;;-0.04;100.00
69751;BME280;57335;52.288;6.056;2023-12-04T04:59:57;101066.34;;;-0.03;100.00
69751;BME280;57335;52.288;6.056;2023-12-04T05:02:24;101059.31;;;-0.01;100.00
69751;BME280;57335;52.288;6.056;2023-12-04T05:04:50;101061.31;;;-0.05;100.00
69751;BME280;57335;52.288;6.056;2023-12-04T05:07:17;101056.03;;;-0.03;100.00
69751;BME280;57335;52.288;6.056;2023-12-04T05:09:43;101059.69;;;-0.06;100.00
69751;BME280;57335;52.288;6.056;2023-12-04T05:12:10;101045.31;;;-0.08;100.00
69751;BME280;57335;52.288;6.056;2023-12-04T05:14:37;101053.34;;;-0.02;100.00
69751;BME280;57335;52.288;6.056;2023-12-04T05:17:03;101041.91;;;-0.09;100.00
69751;BME280;57335;52.288;6.056;2023-12-04T05:19:30;101051.97;;;-0.06;100.00
69751;BME280;57335;52.288;6.056;2023-12-04T05:21:56;101055.78;;;0.00;100.00
69751;BME280;57335;52.288;6.056;2023-12-04T05:24:23;101055.09;;;-0.02;100.00
69751;BME280;57335;52.288;6.056;2023-12-04T05:26:49;101049.25;;;-0.04;100.00
69751;BME280;57335;52.288;6.056;2023-12-04T05:29:15;101056.16;;;-0.05;100.00
69751;BME280;57335;52.288;6.056;2023-12-04T05:31:42;101049.94;;;-0.02;100.00
69751;BME280;57335;52.288;6.056;2023-12-04T05:34:08;101052.50;;;-0.02;100.00
69751;BME280;57335;52.288;6.056;2023-12-04T05:36:35;101051.00;;;-0.05;100.00
69751;BME280;57335;52.288;6.056;2023-12-04T05:39:01;101043.16;;;-0.03;100.00
69751;BME280;57335;52.288;6.056;2023-12-04T05:41:29;101035.84;;;-0.08;100.00
69751;BME280;57335;52.288;6.056;2023-12-04T05:43:55;101029.31;;;-0.02;100.00
69751;BME280;57335;52.288;6.056;2023-12-04T05:46:22;101021.31;;;-0.09;100.00
69751;BME280;57335;52.288;6.056;2023-12-04T05:48:49;101009.91;;;-0.06;100.00
69751;BME280;57335;52.288;6.056;2023-12-04T05:51:15;101022.44;;;-0.02;100.00
69751;BME280;57335;52.288;6.056;2023-12-04T05:53:42;101010.19;;;-0.09;100.00
69751;BME280;57335;52.288;6.056;2023-12-04T05:56:09;101020.09;;;-0.05;100.00
69751;BME280;57335;52.288;6.056;2023-12-04T05:58:35;101010.75;;;-0.06;100.00
69751;BME280;57335;52.288;6.056;2023-12-04T06:01:02;101025.56;;;0.02;100.00
69751;BME280;57335;52.288;6.056;2023-12-04T06:03:29;101021.59;;;-0.02;100.00
69751;BME280;57335;52.288;6.056;2023-12-04T06:05:55;101022.44;;;-0.02;100.00
69751;BME280;57335;52.288;6.056;2023-12-04T06:08:24;101005.16;;;-0.11;100.00
69751;BME280;57335;52.288;6.056;2023-12-04T06:10:51;101009.53;;;-0.02;100.00
69751;BME280;57335;52.288;6.056;2023-12-04T06:13:18;101011.16;;;-0.01;100.00
69751;BME280;57335;52.288;6.056;2023-12-04T06:15:44;101002.75;;;-0.03;100.00
69751;BME280;57335;52.288;6.056;2023-12-04T06:18:11;100996.91;;;-0.05;100.00
69751;BME280;57335;52.288;6.056;2023-12-04T06:20:37;100992.06;;;0.02;100.00
69751;BME280;57335;52.288;6.056;2023-12-04T06:23:04;100990.66;;;-0.02;100.00
69751;BME280;57335;52.288;6.056;2023-12-04T06:25:31;100977.66;;;-0.01;100.00
69751;BME280;57335;52.288;6.056;2023-12-04T06:27:57;100991.53;;;0.08;100.00
69751;BME280;57335;52.288;6.056;2023-12-04T06:30:24;100988.28;;;0.06;100.00
69751;BME280;57335;52.288;6.056;2023-12-04T06:32:51;100986.78;;;0.13;100.00
69751;BME280;57335;52.288;6.056;2023-12-04T06:35:18;100986.22;;;0.10;100.00
69751;BME280;57335;52.288;6.056;2023-12-04T06:37:48;100980.38;;;0.08;100.00
69751;BME280;57335;52.288;6.056;2023-12-04T06:40:15;100973.50;;;0.08;100.00
69751;BME280;57335;52.288;6.056;2023-12-04T06:42:42;100970.34;;;0.05;100.00
69751;BME280;57335;52.288;6.056;2023-12-04T06:45:09;100955.03;;;0.03;100.00
69751;BME280;57335;52.288;6.056;2023-12-04T06:47:36;100964.41;;;0.04;100.00
69751;BME280;57335;52.288;6.056;2023-12-04T06:50:04;100964.66;;;0.11;100.00
69751;BME280;57335;52.288;6.056;2023-12-04T06:52:30;100966.28;;;0.12;100.00
69751;BME280;57335;52.288;6.056;2023-12-04T06:54:57;100958.41;;;0.13;100.00
69751;BME280;57335;52.288;6.056;2023-12-04T06:57:23;100953.94;;;0.15;100.00
69751;BME280;57335;52.288;6.056;2023-12-04T06:59:50;100947.03;;;0.06;100.00
69751;BME280;57335;52.288;6.056;2023-12-04T07:02:16;100954.63;;;0.17;100.00
69751;BME280;57335;52.288;6.056;2023-12-04T07:04:43;100943.25;;;0.10;100.00
69751;BME280;57335;52.288;6.056;2023-12-04T07:07:09;100946.75;;;0.09;100.00
69751;BME280;57335;52.288;6.056;2023-12-04T07:09:38;100939.31;;;0.06;100.00
69751;BME280;57335;52.288;6.056;2023-12-04T07:12:05;100948.38;;;0.20;100.00
69751;BME280;57335;52.288;6.056;2023-12-04T07:14:32;100949.47;;;0.17;100.00
69751;BME280;57335;52.288;6.056;2023-12-04T07:17:00;100937.13;;;0.11;100.00
69751;BME280;57335;52.288;6.056;2023-12-04T07:19:26;100945.81;;;0.20;100.00
69751;BME280;57335;52.288;6.056;2023-12-04T07:21:53;100945.97;;;0.18;100.00
69751;BME280;57335;52.288;6.056;2023-12-04T07:24:20;100948.38;;;0.20;100.00
69751;BME280;57335;52.288;6.056;2023-12-04T07:26:46;100942.16;;;0.23;100.00
69751;BME280;57335;52.288;6.056;2023-12-04T07:29:13;100919.38;;;0.08;100.00
69751;BME280;57335;52.288;6.056;2023-12-04T07:31:41;100935.38;;;0.22;100.00
69751;BME280;57335;52.288;6.056;2023-12-04T07:34:07;100937.38;;;0.18;100.00
69751;BME280;57335;52.288;6.056;2023-12-04T07:36:34;100925.72;;;0.14;100.00
69751;BME280;57335;52.288;6.056;2023-12-04T07:39:00;100925.59;;;0.25;100.00
69751;BME280;57335;52.288;6.056;2023-12-04T07:41:27;100928.47;;;0.22;100.00
69751;BME280;57335;52.288;6.056;2023-12-04T07:43:53;100926.41;;;0.26;100.00
69751;BME280;57335;52.288;6.056;2023-12-04T07:46:20;100925.59;;;0.25;100.00
69751;BME280;57335;52.288;6.056;2023-12-04T07:48:47;100920.56;;;0.24;100.00
69751;BME280;57335;52.288;6.056;2023-12-04T07:51:14;100905.78;;;0.26;100.00
69751;BME280;57335;52.288;6.056;2023-12-04T07:53:40;100917.75;;;0.27;100.00
69751;BME280;57335;52.288;6.056;2023-12-04T07:56:07;100898.59;;;0.29;100.00
69751;BME280;57335;52.288;6.056;2023-12-04T07:58:33;100896.81;;;0.30;100.00
69751;BME280;57335;52.288;6.056;2023-12-04T08:01:00;100901.97;;;0.30;100.00
69751;BME280;57335;52.288;6.056;2023-12-04T08:03:27;100881.91;;;0.24;100.00
69751;BME280;57335;52.288;6.056;2023-12-04T08:05:54;100894.78;;;0.33;100.00
69751;BME280;57335;52.288;6.056;2023-12-04T08:08:20;100884.22;;;0.36;100.00
69751;BME280;57335;52.288;6.056;2023-12-04T08:10:47;100876.63;;;0.35;100.00
69751;BME280;57335;52.288;6.056;2023-12-04T08:13:15;100882.59;;;0.35;100.00
69751;BME280;57335;52.288;6.056;2023-12-04T08:15:43;100888.97;;;0.41;100.00
69751;BME280;57335;52.288;6.056;2023-12-04T08:18:10;100875.38;;;0.39;100.00
69751;BME280;57335;52.288;6.056;2023-12-04T08:20:37;100864.78;;;0.42;100.00
69751;BME280;57335;52.288;6.056;2023-12-04T08:23:07;100875.91;;;0.52;100.00
69751;BME280;57335;52.288;6.056;2023-12-04T08:25:34;100871.03;;;0.49;100.00
69751;BME280;57335;52.288;6.056;2023-12-04T08:28:02;100881.47;;;0.57;100.00
69751;BME280;57335;52.288;6.056;2023-12-04T08:30:29;100873.19;;;0.54;100.00
69751;BME280;57335;52.288;6.056;2023-12-04T08:32:56;100877.53;;;0.53;100.00
69751;BME280;57335;52.288;6.056;2023-12-04T08:35:22;100872.13;;;0.47;100.00
69751;BME280;57335;52.288;6.056;2023-12-04T08:37:49;100869.22;;;0.59;100.00
69751;BME280;57335;52.288;6.056;2023-12-04T08:40:16;100866.13;;;0.56;100.00
69751;BME280;57335;52.288;6.056;2023-12-04T08:42:43;100878.88;;;0.57;100.00
69751;BME280;57335;52.288;6.056;2023-12-04T08:45:10;100905.63;;;0.66;100.00
69751;BME280;57335;52.288;6.056;2023-12-04T08:47:37;100867.88;;;0.55;100.00
69751;BME280;57335;52.288;6.056;2023-12-04T08:50:05;100899.34;;;0.69;100.00
69751;BME280;57335;52.288;6.056;2023-12-04T08:52:31;100881.16;;;0.70;100.00
69751;BME280;57335;52.288;6.056;2023-12-04T08:54:58;100865.56;;;0.62;100.00
69751;BME280;57335;52.288;6.056;2023-12-04T08:57:25;100878.72;;;0.69;100.00
69751;BME280;57335;52.288;6.056;2023-12-04T08:59:52;100886.56;;;0.77;100.00
69751;BME280;57335;52.288;6.056;2023-12-04T09:02:18;100872.59;;;0.70;100.00
69751;BME280;57335;52.288;6.056;2023-12-04T09:04:45;100877.72;;;0.79;100.00
69751;BME280;57335;52.288;6.056;2023-12-04T09:07:11;100873.66;;;0.77;100.00
69751;BME280;57335;52.288;6.056;2023-12-04T09:09:59;100863.91;;;0.71;100.00
69751;BME280;57335;52.288;6.056;2023-12-04T09:12:34;100861.88;;;0.74;100.00
69751;BME280;57335;52.288;6.056;2023-12-04T09:15:04;100868.78;;;0.74;100.00
69751;BME280;57335;52.288;6.056;2023-12-04T09:17:33;100872.88;;;0.76;100.00
69751;BME280;57335;52.288;6.056;2023-12-04T09:20:05;100870.38;;;0.85;100.00
69751;BME280;57335;52.288;6.056;2023-12-04T09:22:32;100864.13;;;0.87;100.00
69751;BME280;57335;52.288;6.056;2023-12-04T09:25:15;100868.75;;;0.84;100.00
69751;BME280;57335;52.288;6.056;2023-12-04T09:27:42;100853.41;;;0.82;100.00
69751;BME280;57335;52.288;6.056;2023-12-04T09:30:08;100865.47;;;0.91;100.00
69751;BME280;57335;52.288;6.056;2023-12-04T09:32:35;100852.47;;;0.83;100.00
69751;BME280;57335;52.288;6.056;2023-12-04T09:35:01;100849.56;;;0.96;100.00
69751;BME280;57335;52.288;6.056;2023-12-04T09:37:28;100846.16;;;0.95;100.00
69751;BME280;57335;52.288;6.056;2023-12-04T09:39:54;100847.81;;;0.96;100.00
69751;BME280;57335;52.288;6.056;2023-12-04T09:42:21;100848.16;;;1.02;100.00
69751;BME280;57335;52.288;6.056;2023-12-04T09:44:48;100848.16;;;1.02;100.00
69751;BME280;57335;52.288;6.056;2023-12-04T09:47:18;100850.97;;;1.08;100.00
69751;BME280;57335;52.288;6.056;2023-12-04T09:49:45;100842.66;;;0.96;100.00
69751;BME280;57335;52.288;6.056;2023-12-04T09:52:12;100840.44;;;1.02;100.00
69751;BME280;57335;52.288;6.056;2023-12-04T09:54:39;100846.06;;;1.15;100.00
69751;BME280;57335;52.288;6.056;2023-12-04T09:57:06;100834.78;;;1.16;100.00
69751;BME280;57335;52.288;6.056;2023-12-04T09:59:33;100825.56;;;1.13;100.00
69751;BME280;57335;52.288;6.056;2023-12-04T10:02:02;100839.66;;;1.19;100.00
69751;BME280;57335;52.288;6.056;2023-12-04T10:04:29;100832.06;;;1.17;100.00
69751;BME280;57335;52.288;6.056;2023-12-04T10:06:56;100835.69;;;1.25;100.00
69751;BME280;57335;52.288;6.056;2023-12-04T10:09:23;100831.94;;;1.19;100.00
69751;BME280;57335;52.288;6.056;2023-12-04T10:11:51;100833.03;;;1.16;100.00
69751;BME280;57335;52.288;6.056;2023-12-04T10:14:19;100824.72;;;1.23;100.00
69751;BME280;57335;52.288;6.056;2023-12-04T10:16:48;100820.34;;;1.23;100.00
69751;BME280;57335;52.288;6.056;2023-12-04T10:19:27;100810.16;;;1.22;100.00
69751;BME280;57335;52.288;6.056;2023-12-04T10:21:57;100812.47;;;1.25;100.00
69751;BME280;57335;52.288;6.056;2023-12-04T10:24:35;100810.56;;;1.27;100.00
69751;BME280;57335;52.288;6.056;2023-12-04T10:27:06;100818.66;;;1.32;100.00
69751;BME280;57335;52.288;6.056;2023-12-04T10:29:47;100807.81;;;1.28;100.00
69751;BME280;57335;52.288;6.056;2023-12-04T10:32:18;100801.41;;;1.32;100.00
69751;BME280;57335;52.288;6.056;2023-12-04T10:34:48;100797.88;;;1.33;100.00
69751;BME280;57335;52.288;6.056;2023-12-04T10:37:15;100785.53;;;1.27;100.00
69751;BME280;57335;52.288;6.056;2023-12-04T10:39:50;100784.28;;;1.31;100.00
69751;BME280;57335;52.288;6.056;2023-12-04T10:42:24;100786.59;;;1.34;100.00
69751;BME280;57335;52.288;6.056;2023-12-04T10:44:52;100780.06;;;1.30;100.00
69751;BME280;57335;52.288;6.056;2023-12-04T10:47:21;100764.75;;;1.29;100.00
69751;BME280;57335;52.288;6.056;2023-12-04T10:49:51;100769.84;;;1.38;100.00
69751;BME280;57335;52.288;6.056;2023-12-04T10:52:18;100779.34;;;1.38;100.00
69751;BME280;57335;52.288;6.056;2023-12-04T10:54:48;100768.28;;;1.46;100.00
69751;BME280;57335;52.288;6.056;2023-12-04T10:57:26;100768.94;;;1.48;100.00
69751;BME280;57335;52.288;6.056;2023-12-04T11:00:01;100765.47;;;1.57;100.00
69751;BME280;57335;52.288;6.056;2023-12-04T11:02:33;100771.75;;;1.54;100.00
69751;BME280;57335;52.288;6.056;2023-12-04T11:05:08;100764.00;;;1.54;100.00
69751;BME280;57335;52.288;6.056;2023-12-04T11:07:44;100760.75;;;1.52;100.00
69751;BME280;57335;52.288;6.056;2023-12-04T11:10:38;100761.13;;;1.57;100.00
69751;BME280;57335;52.288;6.056;2023-12-04T11:13:16;100739.59;;;1.49;100.00
69751;BME280;57335;52.288;6.056;2023-12-04T11:15:48;100747.41;;;1.57;99.54
69751;BME280;57335;52.288;6.056;2023-12-04T11:18:22;100735.66;;;1.63;100.00
69751;BME280;57335;52.288;6.056;2023-12-04T11:21:06;100743.16;;;1.74;100.00
69751;BME280;57335;52.288;6.056;2023-12-04T11:23:34;100741.69;;;1.71;98.09
69751;BME280;57335;52.288;6.056;2023-12-04T11:26:02;100739.97;;;1.80;100.00
69751;BME280;57335;52.288;6.056;2023-12-04T11:28:31;100735.47;;;1.82;99.53
69751;BME280;57335;52.288;6.056;2023-12-04T11:30:59;100735.50;;;1.90;100.00
69751;BME280;57335;52.288;6.056;2023-12-04T11:33:27;100732.81;;;2.00;98.33
69751;BME280;57335;52.288;6.056;2023-12-04T11:36:05;100724.22;;;1.91;96.42
69751;BME280;57335;52.288;6.056;2023-12-04T11:38:36;100726.06;;;1.99;97.86
69751;BME280;57335;52.288;6.056;2023-12-04T11:41:23;100712.91;;;1.92;97.21
69751;BME280;57335;52.288;6.056;2023-12-04T11:43:55;100702.94;;;1.97;99.31
69751;BME280;57335;52.288;6.056;2023-12-04T11:46:25;100693.41;;;1.98;97.98
69751;BME280;57335;52.288;6.056;2023-12-04T11:48:57;100707.19;;;2.07;98.45
69751;BME280;57335;52.288;6.056;2023-12-04T11:54:09;100699.28;;;2.08;98.24
69751;BME280;57335;52.288;6.056;2023-12-04T11:56:36;100692.78;;;2.04;96.22
69751;BME280;57335;52.288;6.056;2023-12-04T11:59:04;100681.59;;;1.95;95.61
69751;BME280;57335;52.288;6.056;2023-12-04T12:01:36;100667.88;;;1.95;94.25
69751;BME280;57335;52.288;6.056;2023-12-04T12:04:06;100685.50;;;1.99;96.56
69751;BME280;57335;52.288;6.056;2023-12-04T12:06:33;100679.22;;;2.02;95.30
69751;BME280;57335;52.288;6.056;2023-12-04T12:09:00;100661.59;;;1.97;96.20
69751;BME280;57335;52.288;6.056;2023-12-04T12:11:27;100667.13;;;2.03;98.08
69751;BME280;57335;52.288;6.056;2023-12-04T12:13:54;100658.53;;;2.02;97.86
69751;BME280;57335;52.288;6.056;2023-12-04T12:16:21;100663.75;;;2.10;96.91
69751;BME280;57335;52.288;6.056;2023-12-04T12:18:48;100655.53;;;2.15;96.39
69751;BME280;57335;52.288;6.056;2023-12-04T12:21:15;100656.16;;;2.09;94.44
69751;BME280;57335;52.288;6.056;2023-12-04T12:23:42;100637.84;;;2.02;95.00
69751;BME280;57335;52.288;6.056;2023-12-04T12:26:10;100643.53;;;2.06;93.70
69751;BME280;57335;52.288;6.056;2023-12-04T12:28:37;100644.34;;;2.06;95.56
69751;BME280;57335;52.288;6.056;2023-12-04T12:31:04;100629.16;;;2.03;94.05
69751;BME280;57335;52.288;6.056;2023-12-04T12:33:31;100639.81;;;2.08;93.24
69751;BME280;57335;52.288;6.056;2023-12-04T12:35:58;100628.50;;;2.01;94.23
69751;BME280;57335;52.288;6.056;2023-12-04T12:38:30;100635.16;;;2.12;94.00
69751;BME280;57335;52.288;6.056;2023-12-04T12:41:01;100627.88;;;2.07;93.89
69751;BME280;57335;52.288;6.056;2023-12-04T12:43:28;100625.78;;;2.11;92.06
69751;BME280;57335;52.288;6.056;2023-12-04T12:45:54;100629.34;;;2.10;93.98
69751;BME280;57335;52.288;6.056;2023-12-04T12:48:21;100619.13;;;2.08;93.44
69751;BME280;57335;52.288;6.056;2023-12-04T12:50:47;100608.66;;;2.10;95.99
69751;BME280;57335;52.288;6.056;2023-12-04T12:53:14;100614.19;;;2.15;95.86